Time;durP1;ratioP1;P1;durP2;ratioP2;P2;SDS_P1;SDS_P2;PMS_P1;PMS_P2;Temp;Humidity;BMP_temperature;BMP_pressure;BME280_temperature;BME280_humidity;BME280_pressure;Samples;Min_cycle;Max_cycle;Signal;HPM_P1;HPM_P2
2022/11/27 00:01:34;;;;;;;8.90;5.28;;;;;;;5.32;83.19;102131.72;5043260;28;20041;-71
2022/11/27 00:04:04;;;;;;;10.77;5.95;;;;;;;5.32;82.34;102126.31;5035601;28;20050;-71
2022/11/27 00:06:32;;;;;;;9.90;5.60;;;;;;;5.39;82.50;102131.75;5035885;28;20041;-71
2022/11/27 00:09:03;;;;;;;13.07;6.47;;;;;;;5.44;82.10;102128.41;5035341;28;20045;-71
2022/11/27 00:11:31;;;;;;;11.43;5.88;;;;;;;5.43;82.46;102132.16;5038950;28;20049;-71
2022/11/27 00:14:00;;;;;;;9.85;5.53;;;;;;;5.36;82.03;102124.84;5055121;28;20053;-72
2022/11/27 00:16:28;;;;;;;12.23;5.68;;;;;;;5.32;81.80;102126.31;5054988;28;20056;-71
2022/11/27 00:18:56;;;;;;;11.77;5.40;;;;;;;5.33;81.83;102122.53;5038434;28;20048;-71
2022/11/27 00:21:30;;;;;;;8.95;5.05;;;;;;;5.30;82.64;102130.25;5038896;28;20041;-72
2022/11/27 00:24:03;;;;;;;7.33;4.43;;;;;;;5.30;82.42;102127.56;5048479;28;20064;-71
2022/11/27 00:26:32;;;;;;;11.50;4.70;;;;;;;5.29;82.06;102128.59;5035226;28;20647;-71
2022/11/27 00:29:05;;;;;;;8.27;5.07;;;;;;;5.25;83.04;102130.88;5037044;28;20046;-71
2022/11/27 00:31:36;;;;;;;7.80;4.90;;;;;;;5.25;83.85;102125.47;5035007;28;20049;-72
2022/11/27 00:34:06;;;;;;;7.80;4.28;;;;;;;5.24;83.58;102124.59;5023356;28;20759;-71
2022/11/27 00:36:35;;;;;;;8.00;4.57;;;;;;;5.25;83.67;102126.28;5054930;28;20045;-71
2022/11/27 00:39:04;;;;;;;8.43;4.70;;;;;;;5.29;83.27;102120.44;5048578;28;20053;-72
2022/11/27 00:41:32;;;;;;;8.95;4.65;;;;;;;5.29;83.49;102124.00;5055474;28;20045;-71
2022/11/27 00:44:00;;;;;;;9.30;4.53;;;;;;;5.32;83.77;102120.88;5053455;28;20376;-72
2022/11/27 00:46:30;;;;;;;6.57;4.18;;;;;;;5.32;82.55;102122.78;5055056;28;20052;-71
2022/11/27 00:48:59;;;;;;;6.10;4.03;;;;;;;5.28;83.28;102127.75;5037781;28;20049;-72
2022/11/27 00:51:28;;;;;;;7.00;4.63;;;;;;;5.27;83.26;102123.38;5033875;28;20520;-71
2022/11/27 00:53:57;;;;;;;5.13;4.25;;;;;;;5.30;83.80;102125.69;5040307;28;20050;-71
2022/11/27 00:56:30;;;;;;;7.40;4.90;;;;;;;5.30;84.06;102124.84;5034522;28;20049;-71
2022/11/27 00:58:59;;;;;;;7.55;4.65;;;;;;;5.18;84.38;102116.47;5036318;28;20049;-72
2022/11/27 01:01:36;;;;;;;9.00;5.05;;;;;;;5.15;84.76;102130.44;5034524;28;20045;-72
2022/11/27 01:04:06;;;;;;;7.15;4.65;;;;;;;5.06;85.02;102122.50;5035204;28;20053;-71
2022/11/27 01:06:34;;;;;;;6.88;4.55;;;;;;;5.04;85.30;102121.03;5034480;28;20057;-72
2022/11/27 01:09:03;;;;;;;6.18;4.07;;;;;;;5.03;85.41;102112.03;5039269;28;20395;-71
2022/11/27 01:11:33;;;;;;;7.20;4.53;;;;;;;5.08;85.79;102125.84;5054466;28;20055;-72
2022/11/27 01:14:04;;;;;;;5.60;4.30;;;;;;;5.04;85.99;102124.56;5052972;28;20500;-71
2022/11/27 01:16:33;;;;;;;8.48;4.95;;;;;;;5.01;85.81;102119.56;5052835;28;20056;-71
2022/11/27 01:19:01;;;;;;;11.98;5.65;;;;;;;5.00;86.48;102117.88;5037416;28;20064;-71
2022/11/27 01:21:31;;;;;;;7.47;4.65;;;;;;;4.94;86.18;102113.28;5033070;28;20054;-72
2022/11/27 01:24:00;;;;;;;11.38;4.85;;;;;;;4.95;86.03;102110.34;5041257;28;20052;-71
2022/11/27 01:26:30;;;;;;;7.95;4.45;;;;;;;4.96;86.12;102113.91;5033712;28;20049;-71
2022/11/27 01:28:59;;;;;;;7.25;4.45;;;;;;;4.96;86.11;102127.47;5042851;28;20056;-71
2022/11/27 01:31:29;;;;;;;8.90;4.32;;;;;;;4.92;86.43;102118.91;5046360;28;20369;-71
2022/11/27 01:34:01;;;;;;;9.23;3.95;;;;;;;4.97;85.50;102115.56;5033889;28;20049;-72
2022/11/27 01:36:30;;;;;;;5.05;3.97;;;;;;;5.01;85.21;102119.56;5032896;28;20503;-71
2022/11/27 01:38:58;;;;;;;7.35;4.68;;;;;;;4.96;87.14;102122.91;5032428;28;20607;-72
2022/11/27 01:41:31;;;;;;;6.07;4.20;;;;;;;4.93;86.55;102115.16;5033926;28;20038;-71
2022/11/27 01:44:01;;;;;;;6.10;4.05;;;;;;;5.01;85.30;102119.56;5038568;28;20053;-71
2022/11/27 01:46:41;;;;;;;5.47;3.80;;;;;;;4.96;85.51;102113.91;5035622;28;20049;-71
2022/11/27 01:49:19;;;;;;;5.72;4.13;;;;;;;5.03;85.46;102111.22;5033587;28;20053;-71
2022/11/27 01:51:58;;;;;;;6.10;4.03;;;;;;;5.01;85.77;102108.72;5032277;28;20045;-70
2022/11/27 01:54:40;;;;;;;4.65;3.60;;;;;;;4.98;85.23;102109.94;5048126;28;20049;-71
2022/11/27 01:57:24;;;;;;;4.47;3.55;;;;;;;4.94;85.17;102107.84;5032798;28;20049;-72
2022/11/27 01:59:55;;;;;;;7.50;3.63;;;;;;;4.91;85.34;102110.97;5040612;28;20044;-72
2022/11/27 02:02:23;;;;;;;6.40;4.07;;;;;;;4.91;85.26;102103.66;5041559;28;20069;-72
2022/11/27 02:04:53;;;;;;;5.40;3.67;;;;;;;4.95;84.91;102104.09;5033508;28;20045;-72
2022/11/27 02:07:21;;;;;;;4.38;3.58;;;;;;;4.99;85.27;102105.38;5030744;28;20404;-72
2022/11/27 02:09:50;;;;;;;5.05;3.63;;;;;;;4.99;84.73;102105.38;5033503;28;20052;-72
2022/11/27 02:12:26;;;;;;;10.00;4.38;;;;;;;4.97;85.60;102104.72;5042997;28;20064;-72
2022/11/27 02:14:56;;;;;;;8.02;4.32;;;;;;;4.92;85.61;102101.78;5052092;28;20045;-72
2022/11/27 02:17:56;;;;;;;6.15;3.70;;;;;;;4.81;86.00;102098.63;5036486;28;20515;-72
2022/11/27 02:21:13;;;;;;;3.60;3.30;;;;;;;4.75;86.31;102095.88;5005472;28;20053;-72
2022/11/27 02:23:53;;;;;;;4.85;3.35;;;;;;;4.69;87.34;102092.09;5015087;28;20068;-71
2022/11/27 02:26:49;;;;;;;4.43;3.33;;;;;;;4.69;86.31;102097.53;5032753;28;20045;-71
2022/11/27 02:29:21;;;;;;;7.50;3.53;;;;;;;4.73;86.02;102096.09;5039230;28;20041;-71
2022/11/27 02:32:03;;;;;;;5.38;3.60;;;;;;;4.74;85.75;102091.50;5051474;28;20053;-71
2022/11/27 02:35:08;;;;;;;6.32;2.92;;;;;;;4.71;84.89;102088.16;5040399;28;20129;-71
2022/11/27 02:37:36;;;;;;;;;;;;;;;4.74;85.41;102076.06;5032782;28;20081;-72
2022/11/27 02:40:12;;;;;;;3.80;2.78;;;;;;;4.70;86.20;102074.81;5042536;28;20303;-72
2022/11/27 02:42:46;;;;;;;6.68;3.25;;;;;;;4.66;86.67;102070.81;5053052;28;20053;-71
2022/11/27 02:45:24;;;;;;;5.55;3.58;;;;;;;4.64;86.57;102067.50;5052714;28;20049;-72
2022/11/27 02:47:55;;;;;;;7.05;2.78;;;;;;;4.64;86.34;102072.91;5045838;28;20160;-71
2022/11/27 02:50:25;;;;;;;3.67;2.97;;;;;;;4.65;86.50;102061.84;5031575;28;20404;-71
2022/11/27 02:52:59;;;;;;;4.88;3.13;;;;;;;4.66;86.88;102051.84;5032558;28;20057;-71
2022/11/27 02:55:32;;;;;;;4.05;2.90;;;;;;;4.68;86.73;102057.88;5041571;28;20052;-71
2022/11/27 02:58:04;;;;;;;4.53;3.20;;;;;;;4.66;86.66;102057.28;5044918;28;20041;-72
2022/11/27 03:00:34;;;;;;;5.35;2.88;;;;;;;4.73;85.62;102063.53;5043474;28;20064;-71
2022/11/27 03:03:07;;;;;;;5.88;3.53;;;;;;;4.76;85.96;102062.31;5036491;28;20052;-72
2022/11/27 03:05:41;;;;;;;3.03;2.57;;;;;;;4.75;85.93;102061.47;5032244;28;20049;-71
2022/11/27 03:08:17;;;;;;;5.43;3.05;;;;;;;4.71;86.37;102061.03;5033631;28;20049;-71
2022/11/27 03:10:53;;;;;;;3.97;3.17;;;;;;;4.65;86.46;102055.59;5032822;28;20053;-71
2022/11/27 03:13:21;;;;;;;6.10;3.50;;;;;;;4.62;86.01;102061.41;5032810;28;20049;-71
2022/11/27 03:16:10;;;;;;;2.97;2.67;;;;;;;4.59;86.56;102061.84;5032107;28;20041;-71
2022/11/27 03:18:55;;;;;;;5.25;2.97;;;;;;;4.55;86.71;102058.69;5045784;28;20060;-71
2022/11/27 03:21:35;;;;;;;6.38;3.33;;;;;;;4.51;86.95;102050.13;5051069;28;20075;-72
2022/11/27 03:24:04;;;;;;;6.13;3.10;;;;;;;4.44;86.89;102055.53;5052077;28;20052;-71
2022/11/27 03:26:32;;;;;;;4.75;3.33;;;;;;;4.48;86.57;102055.94;5045686;28;20404;-71
2022/11/27 03:29:03;;;;;;;3.70;2.58;;;;;;;4.50;87.14;102058.47;5031843;28;20049;-71
2022/11/27 03:31:32;;;;;;;5.05;2.75;;;;;;;4.44;88.27;102058.22;5035827;28;20049;-72
2022/11/27 03:34:00;;;;;;;3.38;2.63;;;;;;;4.43;87.72;102050.28;5052057;28;20389;-71
2022/11/27 03:36:28;;;;;;;3.63;2.72;;;;;;;4.42;87.45;102054.03;5055306;28;20057;-72
2022/11/27 03:38:56;;;;;;;4.75;2.63;;;;;;;4.43;87.31;102053.84;5036369;28;20053;-72
2022/11/27 03:41:47;;;;;;;5.90;3.05;;;;;;;4.44;87.18;102071.78;5036232;28;20473;-71
2022/11/27 03:44:20;;;;;;;4.55;2.90;;;;;;;4.46;85.69;102062.59;5041800;28;20049;-72
2022/11/27 03:47:42;;;;;;;5.90;2.53;;;;;;;4.45;86.33;102061.75;5055845;28;20061;-71
2022/11/27 03:50:25;;;;;;;3.00;2.70;;;;;;;4.48;86.24;102060.53;4993595;28;20556;-71
2022/11/27 03:53:22;;;;;;;4.60;2.67;;;;;;;4.53;84.34;102069.75;5038574;28;20052;-71
2022/11/27 03:56:00;;;;;;;3.65;2.65;;;;;;;4.56;85.13;102073.91;5037025;28;20049;-71
2022/11/27 03:58:37;;;;;;;5.90;2.65;;;;;;;4.46;84.88;102062.59;5036669;28;20053;-71
2022/11/27 04:01:09;;;;;;;3.67;2.72;;;;;;;4.47;84.54;102070.53;5034628;28;20068;-71
2022/11/27 04:03:37;;;;;;;5.93;2.95;;;;;;;4.40;84.82;102072.41;5034287;28;20392;-71
2022/11/27 04:06:05;;;;;;;3.22;2.42;;;;;;;4.36;85.59;102065.69;5031977;28;20056;-71
2022/11/27 04:08:33;;;;;;;5.85;2.85;;;;;;;4.37;84.98;102075.50;5024858;28;20491;-71
2022/11/27 04:11:01;;;;;;;5.10;2.42;;;;;;;4.32;84.38;102064.41;5033088;28;20403;-70
2022/11/27 04:13:29;;;;;;;3.45;2.13;;;;;;;4.34;83.76;102062.38;5038244;28;20049;-72
2022/11/27 04:16:01;;;;;;;4.32;2.92;;;;;;;4.36;83.75;102063.84;5056295;28;20399;-72
2022/11/27 04:18:29;;;;;;;3.20;2.15;;;;;;;4.33;83.13;102066.09;5047726;28;20054;-72
2022/11/27 04:20:57;;;;;;;2.35;2.00;;;;;;;4.30;83.57;102057.34;5034473;28;20054;-72
2022/11/27 04:23:25;;;;;;;2.78;2.20;;;;;;;4.38;83.07;102066.31;5034841;28;20054;-71
2022/11/27 04:25:53;;;;;;;3.38;2.30;;;;;;;4.38;84.07;102061.75;5034153;28;20519;-71
2022/11/27 04:28:21;;;;;;;4.35;2.70;;;;;;;4.40;82.59;102067.78;5035154;28;20096;-71
2022/11/27 04:30:52;;;;;;;2.88;2.45;;;;;;;4.40;81.55;102064.25;5051397;28;20064;-72
2022/11/27 04:33:21;;;;;;;3.30;2.00;;;;;;;4.39;81.92;102068.00;5055670;28;20049;-72
2022/11/27 04:35:50;;;;;;;3.35;2.30;;;;;;;4.36;81.82;102063.00;5045952;28;20041;-71
2022/11/27 04:38:19;;;;;;;3.55;2.28;;;;;;;4.29;83.08;102063.78;5037044;28;20064;-71
2022/11/27 04:40:47;;;;;;;3.40;2.17;;;;;;;4.36;81.92;102068.41;5035676;28;20404;-71
2022/11/27 04:43:15;;;;;;;3.80;2.33;;;;;;;4.44;81.64;102068.22;5034832;28;20057;-71
2022/11/27 04:45:43;;;;;;;3.22;2.75;;;;;;;4.44;81.90;102057.38;5046871;28;20048;-72
2022/11/27 04:48:11;;;;;;;4.10;2.47;;;;;;;4.46;83.10;102063.47;5046247;28;20073;-72
2022/11/27 04:50:39;;;;;;;5.85;2.80;;;;;;;4.43;82.09;102064.69;5034766;28;20076;-71
2022/11/27 04:53:07;;;;;;;8.82;3.08;;;;;;;4.42;81.83;102070.31;5034560;28;20404;-71
2022/11/27 04:55:35;;;;;;;5.40;3.03;;;;;;;4.36;81.80;102060.28;5043182;28;20049;-71
2022/11/27 04:58:03;;;;;;;6.97;2.72;;;;;;;4.37;82.06;102070.94;5039746;28;20037;-72
2022/11/27 05:00:30;;;;;;;3.75;2.92;;;;;;;4.29;82.67;102074.63;5033847;28;20045;-71
2022/11/27 05:02:58;;;;;;;3.70;2.88;;;;;;;4.29;82.38;102071.94;5034682;28;20049;-71
2022/11/27 05:05:26;;;;;;;3.08;2.47;;;;;;;4.25;82.38;102073.34;5034338;28;20038;-72
2022/11/27 05:07:54;;;;;;;3.67;3.13;;;;;;;4.12;82.60;102068.72;5034763;28;20056;-71
2022/11/27 05:10:22;;;;;;;3.60;2.47;;;;;;;4.14;82.71;102068.50;5034304;28;20064;-72
2022/11/27 05:12:50;;;;;;;3.28;2.25;;;;;;;4.14;82.00;102068.50;5034421;28;20061;-71
2022/11/27 05:15:18;;;;;;;4.07;2.50;;;;;;;4.11;81.98;102077.03;5034596;28;20049;-72
2022/11/27 05:17:46;;;;;;;5.13;2.97;;;;;;;4.16;81.90;102069.16;5034272;28;20053;-72
2022/11/27 05:20:14;;;;;;;4.07;2.75;;;;;;;4.18;82.75;102069.78;5053770;28;20052;-72
2022/11/27 05:22:43;;;;;;;3.70;2.20;;;;;;;4.17;82.33;102076.25;5054106;28;20049;-72
2022/11/27 05:25:10;;;;;;;2.42;2.08;;;;;;;4.16;82.48;102069.16;5053876;28;20052;-72
2022/11/27 05:27:38;;;;;;;3.20;1.95;;;;;;;4.09;82.98;102073.66;5052642;28;20076;-72
2022/11/27 05:30:07;;;;;;;2.65;2.28;;;;;;;4.12;82.10;102067.88;5021298;28;20065;-72
2022/11/27 05:32:34;;;;;;;3.67;1.85;;;;;;;4.14;83.55;102060.38;5014943;28;20054;-71
2022/11/27 05:35:03;;;;;;;4.07;2.10;;;;;;;4.10;83.51;102064.53;5030841;28;20057;-72
2022/11/27 05:37:31;;;;;;;3.63;2.42;;;;;;;4.10;82.92;102056.41;5050549;28;20511;-71
2022/11/27 05:39:58;;;;;;;2.10;1.90;;;;;;;4.15;81.98;102056.63;5033666;28;20041;-72
2022/11/27 05:42:26;;;;;;;2.95;2.20;;;;;;;4.17;83.16;102065.41;5033665;28;20053;-72
2022/11/27 05:44:54;;;;;;;3.78;2.40;;;;;;;4.09;82.86;102057.41;5038103;28;20048;-72
2022/11/27 05:47:25;;;;;;;2.83;2.15;;;;;;;4.03;84.36;102057.22;5047887;28;20037;-71
2022/11/27 05:49:53;;;;;;;3.90;2.28;;;;;;;4.00;84.48;102060.31;5033847;28;20053;-72
2022/11/27 05:52:21;;;;;;;3.50;2.45;;;;;;;3.99;84.25;102064.06;5034362;28;20484;-72
2022/11/27 05:54:48;;;;;;;2.85;2.10;;;;;;;3.97;85.44;102063.38;5038283;28;20064;-72
2022/11/27 05:57:16;;;;;;;5.35;2.50;;;;;;;3.97;84.88;102071.50;5048493;28;20128;-71
2022/11/27 05:59:44;;;;;;;2.45;2.03;;;;;;;3.97;84.07;102066.09;5033478;28;20057;-71
2022/11/27 06:02:12;;;;;;;9.00;3.45;;;;;;;4.03;82.75;102076.16;5033322;28;20060;-72
2022/11/27 06:04:48;;;;;;;8.80;3.97;;;;;;;4.03;82.22;102081.59;5033020;28;20057;-71
2022/11/27 06:07:16;;;;;;;7.68;3.20;;;;;;;3.93;81.77;102078.38;5032154;28;20053;-71
2022/11/27 06:09:44;;;;;;;8.73;3.60;;;;;;;3.96;82.06;102085.28;5033533;28;20057;-71
2022/11/27 06:12:12;;;;;;;7.50;3.08;;;;;;;3.97;81.50;102082.34;5033183;28;20049;-71
2022/11/27 06:14:40;;;;;;;6.60;2.55;;;;;;;3.94;83.04;102081.91;5032736;28;20049;-71
2022/11/27 06:17:08;;;;;;;6.82;4.30;;;;;;;3.94;81.78;102077.34;5037302;28;20049;-71
2022/11/27 06:19:36;;;;;;;7.13;2.50;;;;;;;3.97;81.84;102079.66;5033185;28;20049;-69
2022/11/27 06:22:05;;;;;;;2.95;2.35;;;;;;;3.97;81.66;102079.66;5033454;28;20058;-70
2022/11/27 06:24:33;;;;;;;3.67;2.22;;;;;;;3.98;81.30;102085.91;5042573;28;20045;-70
2022/11/27 06:27:01;;;;;;;11.68;5.82;;;;;;;3.98;81.57;102085.91;5031944;28;20037;-71
2022/11/27 06:29:29;;;;;;;8.93;5.25;;;;;;;3.94;81.00;102093.59;5052718;28;20052;-71
2022/11/27 06:31:57;;;;;;;6.68;4.10;;;;;;;3.99;80.48;102091.13;5048742;28;20056;-71
2022/11/27 06:34:25;;;;;;;4.32;2.95;;;;;;;4.07;80.37;102102.84;5041965;28;20407;-71
2022/11/27 06:36:53;;;;;;;3.30;2.47;;;;;;;4.03;80.49;102108.69;5032047;28;20046;-71
2022/11/27 06:39:20;;;;;;;3.60;2.55;;;;;;;4.04;81.04;102098.66;5031554;28;20053;-71
2022/11/27 06:41:48;;;;;;;7.57;3.33;;;;;;;4.08;80.48;102099.09;5032459;28;20053;-71
2022/11/27 06:44:16;;;;;;;5.05;2.92;;;;;;;4.10;80.97;102095.16;5032845;28;20072;-71
2022/11/27 06:46:44;;;;;;;6.47;4.03;;;;;;;4.14;79.77;102106.44;5037857;28;20063;-71
2022/11/27 06:49:12;;;;;;;6.20;3.80;;;;;;;4.16;79.86;102101.66;5052517;28;20056;-70
2022/11/27 06:51:40;;;;;;;6.30;4.10;;;;;;;4.19;79.92;102101.25;5050947;28;20480;-71
2022/11/27 06:54:07;;;;;;;4.78;3.10;;;;;;;4.30;78.83;102103.41;5049623;28;20060;-71
2022/11/27 06:56:35;;;;;;;5.43;3.63;;;;;;;4.39;78.57;102108.66;5034888;28;20053;-72
2022/11/27 06:59:03;;;;;;;4.85;3.38;;;;;;;4.48;78.50;102103.91;5052658;28;20068;-71
2022/11/27 07:01:31;;;;;;;4.28;3.20;;;;;;;4.60;78.40;102106.88;5052421;28;20400;-71
2022/11/27 07:03:59;;;;;;;4.03;3.00;;;;;;;4.73;78.40;102104.22;5052083;28;20053;-71
2022/11/27 07:06:27;;;;;;;4.90;3.20;;;;;;;4.82;77.64;102103.00;5035180;28;20052;-71
2022/11/27 07:08:55;;;;;;;6.05;3.35;;;;;;;5.00;77.74;102107.03;5052275;28;20049;-72
2022/11/27 07:11:25;;;;;;;5.38;2.72;;;;;;;5.13;77.55;102110.81;5037106;28;20076;-72
2022/11/27 07:13:56;;;;;;;2.75;2.40;;;;;;;5.20;77.56;102106.25;5046362;28;20119;-71
2022/11/27 07:16:25;;;;;;;3.90;2.42;;;;;;;5.29;75.99;102105.00;5044679;28;20041;-72
2022/11/27 07:18:56;;;;;;;3.13;1.95;;;;;;;5.46;76.17;102102.72;5049569;28;20064;-72
2022/11/27 07:21:24;;;;;;;2.63;2.13;;;;;;;5.60;74.92;102097.28;5052119;28;20071;-72
2022/11/27 07:23:53;;;;;;;2.70;2.05;;;;;;;5.76;73.65;102101.47;5041052;28;20048;-71
2022/11/27 07:26:24;;;;;;;8.35;2.20;;;;;;;5.97;73.81;102110.44;5015703;28;20049;-72
2022/11/27 07:28:52;;;;;;;4.93;2.53;;;;;;;6.12;74.08;102107.53;5042134;28;20812;-71
2022/11/27 07:31:22;;;;;;;2.88;2.25;;;;;;;6.21;74.12;102108.13;5045592;28;20046;-72
2022/11/27 07:33:51;;;;;;;2.33;1.80;;;;;;;6.25;72.42;102101.22;5036780;28;20508;-72
2022/11/27 07:36:22;;;;;;;3.75;2.15;;;;;;;6.29;71.48;102097.00;5030017;28;20072;-71
2022/11/27 07:38:50;;;;;;;4.97;2.42;;;;;;;6.41;71.56;102099.91;5031360;28;20046;-71
2022/11/27 07:41:18;;;;;;;7.63;2.78;;;;;;;6.61;72.07;102099.84;5045758;28;20384;-72
2022/11/27 07:43:46;;;;;;;4.82;2.42;;;;;;;6.68;71.69;102111.53;5033178;28;20042;-71
2022/11/27 07:46:17;;;;;;;3.72;2.60;;;;;;;6.70;71.31;102109.41;5011760;28;20046;-71
2022/11/27 07:48:45;;;;;;;4.20;2.70;;;;;;;6.73;70.71;102113.59;5031200;28;20045;-71
2022/11/27 07:51:15;;;;;;;3.50;2.58;;;;;;;6.86;70.47;102113.53;5050901;28;20041;-71
2022/11/27 07:53:44;;;;;;;5.38;2.90;;;;;;;7.01;70.63;102122.47;5051861;28;20040;-71
2022/11/27 07:56:14;;;;;;;4.53;2.90;;;;;;;7.21;70.13;102115.03;5051758;28;20056;-71
2022/11/27 07:58:42;;;;;;;4.38;2.90;;;;;;;7.24;69.90;102120.03;5048766;28;20554;-71
2022/11/27 08:01:16;;;;;;;7.05;2.88;;;;;;;7.54;70.19;102118.56;5015930;28;20045;-71
2022/11/27 08:03:45;;;;;;;4.90;2.70;;;;;;;7.62;68.56;102114.75;5031675;28;20058;-71
2022/11/27 08:06:15;;;;;;;6.65;2.80;;;;;;;7.76;68.19;102116.28;5030965;28;20050;-70
2022/11/27 08:08:43;;;;;;;3.42;2.55;;;;;;;7.88;67.98;102121.84;5029472;28;20056;-70
2022/11/27 08:11:34;;;;;;;4.30;2.88;;;;;;;8.02;67.98;102122.53;5034542;28;20484;-70
2022/11/27 08:14:04;;;;;;;3.15;2.85;;;;;;;8.28;68.08;102109.72;5031369;28;20064;-71
2022/11/27 08:16:34;;;;;;;7.40;3.95;;;;;;;8.53;67.59;102118.91;5030960;28;20057;-70
2022/11/27 08:19:02;;;;;;;7.57;3.95;;;;;;;8.56;63.97;102115.72;5031240;28;20064;-71
2022/11/27 08:21:31;;;;;;;10.32;5.00;;;;;;;8.65;65.42;102110.78;5047876;28;20040;-72
2022/11/27 08:23:59;;;;;;;8.25;4.88;;;;;;;8.83;65.47;102115.38;5037511;28;20054;-71
2022/11/27 08:26:27;;;;;;;8.38;5.47;;;;;;;8.96;66.21;102111.66;5033472;28;20041;-71
2022/11/27 08:28:56;;;;;;;7.43;5.40;;;;;;;9.09;65.90;102116.91;5047877;28;20344;-72
2022/11/27 08:31:24;;;;;;;7.90;4.90;;;;;;;9.23;64.61;102117.56;5021606;28;20049;-72
2022/11/27 08:33:52;;;;;;;6.82;4.75;;;;;;;9.40;64.68;102116.91;5013459;28;20042;-71
2022/11/27 08:36:21;;;;;;;8.35;4.82;;;;;;;9.53;66.53;102122.16;5028581;28;20559;-72
2022/11/27 08:38:49;;;;;;;5.35;3.28;;;;;;;9.68;65.66;102123.59;5032764;28;20049;-71
2022/11/27 08:41:17;;;;;;;5.65;3.25;;;;;;;9.77;63.82;102118.59;5032900;28;20048;-72
2022/11/27 08:43:45;;;;;;;3.53;2.65;;;;;;;9.99;62.95;102115.28;5033136;28;20061;-72
2022/11/27 08:46:13;;;;;;;4.70;2.78;;;;;;;10.07;62.94;102121.22;5021972;28;20050;-71
2022/11/27 08:48:41;;;;;;;2.60;2.05;;;;;;;10.26;61.50;102128.50;5013384;28;20053;-71
2022/11/27 08:51:12;;;;;;;3.42;2.67;;;;;;;10.39;60.90;102124.63;5016953;28;20045;-71
2022/11/27 08:53:43;;;;;;;3.63;2.13;;;;;;;10.56;61.02;102119.31;5012998;28;20046;-72
2022/11/27 08:56:19;;;;;;;3.65;2.40;;;;;;;10.68;61.32;102125.56;5027014;28;20049;-73
2022/11/27 08:58:48;;;;;;;2.42;2.22;;;;;;;10.71;59.78;102119.59;5032687;28;20487;-72
2022/11/27 09:01:22;;;;;;;4.28;2.33;;;;;;;10.59;60.65;102122.38;5031288;28;20053;-72
2022/11/27 09:03:51;;;;;;;;;;;;;;;10.58;60.99;102120.72;5032594;28;20048;-71
2022/11/27 09:06:22;;;;;;;3.25;2.20;;;;;;;10.65;61.64;102120.56;5022491;28;19936;-70
2022/11/27 09:08:50;;;;;;;3.00;2.50;;;;;;;10.73;59.73;102128.41;5030484;28;20042;-71
2022/11/27 09:11:19;;;;;;;3.33;2.40;;;;;;;11.18;58.72;102136.13;5032929;28;20045;-71
2022/11/27 09:13:47;;;;;;;4.43;2.75;;;;;;;11.35;57.88;102134.19;5031152;28;20041;-71
2022/11/27 09:16:17;;;;;;;3.67;2.50;;;;;;;11.49;58.70;102131.16;5033185;28;20045;-70
2022/11/27 09:18:47;;;;;;;4.95;2.35;;;;;;;11.67;56.18;102136.41;5030697;28;20056;-70
2022/11/27 09:21:18;;;;;;;6.38;3.05;;;;;;;11.76;57.05;102134.09;5033553;28;20053;-70
2022/11/27 09:23:46;;;;;;;5.25;2.63;;;;;;;11.48;57.39;102133.06;5030694;28;20040;-71
2022/11/27 09:26:15;;;;;;;5.47;2.15;;;;;;;11.99;55.79;102125.91;5032107;28;20404;-71
2022/11/27 09:28:44;;;;;;;4.85;3.00;;;;;;;11.99;55.60;102131.41;5032948;28;20045;-71
2022/11/27 09:31:14;;;;;;;4.82;2.88;;;;;;;12.18;56.20;102134.75;5031815;28;20041;-71
2022/11/27 09:33:43;;;;;;;4.97;3.20;;;;;;;12.19;55.32;102128.16;5031806;28;20404;-71
2022/11/27 09:36:22;;;;;;;4.47;2.50;;;;;;;12.21;55.22;102123.25;5021894;28;20440;-71
2022/11/27 09:38:51;;;;;;;6.93;3.13;;;;;;;12.28;55.19;102123.91;5032197;28;20408;-71
2022/11/27 09:41:38;;;;;;;3.53;2.75;;;;;;;12.36;54.18;102117.97;5031758;28;20053;-70
2022/11/27 09:44:32;;;;;;;2.03;1.80;;;;;;;12.59;53.01;102118.81;5030500;28;20056;-71
2022/11/27 09:47:31;;;;;;;2.15;1.98;;;;;;;12.83;52.13;102113.03;5018894;28;20050;-71
2022/11/27 09:50:23;;;;;;;3.20;2.30;;;;;;;12.73;51.27;102111.00;5031131;28;20789;-72
2022/11/27 09:53:12;;;;;;;3.30;2.50;;;;;;;13.02;52.74;102107.19;5026851;28;20050;-70
2022/11/27 09:55:45;;;;;;;2.47;2.28;;;;;;;12.90;52.81;102108.16;5023627;28;20045;-71
2022/11/27 09:58:36;;;;;;;2.90;2.40;;;;;;;12.99;51.42;102104.94;5031517;28;20056;-70
2022/11/27 10:01:16;;;;;;;2.97;2.58;;;;;;;13.15;51.02;102103.22;5039618;28;20051;-71
2022/11/27 10:03:45;;;;;;;2.33;2.00;;;;;;;13.14;50.60;102085.03;5037641;28;20049;-72
2022/11/27 10:06:23;;;;;;;1.65;1.42;;;;;;;13.22;50.61;102086.47;5029993;28;20050;-72
2022/11/27 10:09:16;;;;;;;9.38;5.25;;;;;;;13.06;48.41;102078.13;5021824;28;20061;-71
2022/11/27 10:11:47;;;;;;;33.77;14.47;;;;;;;13.39;48.61;102070.69;5028840;28;20045;-70
2022/11/27 10:14:34;;;;;;;15.45;7.55;;;;;;;13.48;47.61;102067.50;5020918;28;20060;-71
2022/11/27 10:17:10;;;;;;;6.43;3.63;;;;;;;13.54;47.47;102060.94;5027167;28;20507;-71
2022/11/27 10:19:59;;;;;;;7.07;4.07;;;;;;;13.51;49.32;102067.81;5029493;28;20061;-71
2022/11/27 10:22:38;;;;;;;14.02;6.70;;;;;;;13.37;47.75;102061.88;5031308;28;20049;-72
2022/11/27 10:25:24;;;;;;;12.85;5.00;;;;;;;13.26;48.78;102068.38;5025965;28;20061;-71
2022/11/27 10:28:20;;;;;;;16.02;7.07;;;;;;;13.16;50.08;102063.63;5020513;28;20396;-71
2022/11/27 10:30:58;;;;;;;3.53;2.58;;;;;;;13.07;48.01;102044.03;5028936;28;20053;-71
2022/11/27 10:33:50;;;;;;;5.07;2.08;;;;;;;13.50;47.36;102052.38;5020968;28;20129;-71
2022/11/27 10:36:28;;;;;;;4.60;2.83;;;;;;;13.72;48.21;102042.38;5029513;28;20053;-71
2022/11/27 10:38:59;;;;;;;4.35;2.30;;;;;;;13.75;48.17;102047.31;5022043;28;20038;-71
2022/11/27 10:41:29;;;;;;;2.67;2.22;;;;;;;13.87;48.66;102036.94;5031130;28;20045;-71
2022/11/27 10:44:24;;;;;;;3.72;2.08;;;;;;;13.86;48.55;102034.44;5024385;28;20053;-71
2022/11/27 10:46:57;;;;;;;2.22;1.95;;;;;;;13.86;47.63;102040.78;5027764;28;20400;-71
2022/11/27 10:49:25;;;;;;;2.07;1.80;;;;;;;13.87;46.36;102041.63;5029882;28;20056;-70
2022/11/27 10:51:53;;;;;;;4.18;2.33;;;;;;;13.68;48.22;102031.88;5029654;28;20507;-71
2022/11/27 10:54:33;;;;;;;4.10;2.22;;;;;;;13.75;47.84;102036.31;5027907;28;20042;-71
2022/11/27 10:57:23;;;;;;;6.30;2.38;;;;;;;13.57;48.88;102039.25;5029505;28;20041;-71
2022/11/27 11:00:06;;;;;;;4.80;2.50;;;;;;;13.80;48.58;102028.09;5020321;28;20045;-70
2022/11/27 11:02:37;;;;;;;3.70;2.53;;;;;;;13.96;48.50;102024.34;5027469;28;20049;-70
2022/11/27 11:05:33;;;;;;;4.20;2.50;;;;;;;13.52;47.99;102019.13;5011683;28;20041;-71
2022/11/27 11:08:23;;;;;;;6.70;3.08;;;;;;;13.95;48.94;102019.94;5020211;28;20046;-73
2022/11/27 11:10:56;;;;;;;4.88;3.40;;;;;;;13.96;47.62;102010.56;5017258;28;20046;-71
2022/11/27 11:13:28;;;;;;;5.80;3.47;;;;;;;13.34;48.53;102007.41;5014586;28;20061;-71
2022/11/27 11:16:15;;;;;;;4.40;2.92;;;;;;;13.74;47.50;102009.91;5025552;28;20539;-72
2022/11/27 11:18:52;;;;;;;2.65;2.33;;;;;;;13.94;46.88;102003.69;5030161;28;20052;-72
2022/11/27 11:21:39;;;;;;;3.13;2.30;;;;;;;13.61;46.51;101998.28;5011174;28;20054;-72
2022/11/27 11:24:24;;;;;;;15.50;6.82;;;;;;;13.70;46.33;101993.91;5012904;28;20049;-72
2022/11/27 11:26:59;;;;;;;3.70;2.95;;;;;;;13.41;46.98;101991.50;5031793;28;20042;-72
2022/11/27 11:29:36;;;;;;;;;;;;;;;13.46;45.87;101993.50;5031279;28;20679;-72
2022/11/27 11:32:14;;;;;;;3.85;2.80;;;;;;;13.54;46.36;101990.25;5031900;28;19947;-72
2022/11/27 11:34:45;;;;;;;2.78;1.92;;;;;;;13.76;48.22;101980.19;5030769;28;20038;-76
2022/11/27 11:37:40;;;;;;;3.55;2.90;;;;;;;13.49;47.76;101979.22;5031230;28;20053;-80
2022/11/27 11:40:25;;;;;;;4.63;2.75;;;;;;;13.36;47.56;101972.25;5030539;28;20042;-79
2022/11/27 11:42:57;;;;;;;5.72;2.67;;;;;;;13.23;49.03;101975.44;5044866;28;20056;-80
2022/11/27 11:45:27;;;;;;;2.83;2.60;;;;;;;13.16;48.11;101978.44;5050462;28;20080;-80
2022/11/27 11:48:15;;;;;;;3.00;2.78;;;;;;;13.06;49.21;101983.84;5031482;28;20407;-79
2022/11/27 11:50:59;;;;;;;3.53;3.00;;;;;;;12.88;47.88;101967.50;5030738;28;20045;-78
2022/11/27 11:53:41;;;;;;;4.40;3.00;;;;;;;12.88;49.54;101966.66;5057109;28;20058;-78
2022/11/27 11:56:30;;;;;;;5.65;2.80;;;;;;;12.87;49.01;101960.31;5033095;28;20045;-79
2022/11/27 11:58:57;;;;;;;5.90;3.20;;;;;;;12.85;49.88;101959.75;5032609;28;20048;-79